sensor_id;sensor_type;location;lat;lon;timestamp;temperature;humidity
210;DHT22;90;48.810;9.120;2022-09-30T00:01:05;9.70;90.40
210;DHT22;90;48.810;9.120;2022-09-30T00:03:32;9.70;90.40
210;DHT22;90;48.810;9.120;2022-09-30T00:06:04;9.80;90.20
210;DHT22;90;48.810;9.120;2022-09-30T00:08:36;9.70;89.90
210;DHT22;90;48.810;9.120;2022-09-30T00:11:07;9.70;90.00
210;DHT22;90;48.810;9.120;2022-09-30T00:13:37;9.70;90.10
210;DHT22;90;48.810;9.120;2022-09-30T00:16:07;9.70;90.10
210;DHT22;90;48.810;9.120;2022-09-30T00:18:35;9.70;90.10
210;DHT22;90;48.810;9.120;2022-09-30T00:21:03;9.80;90.30
210;DHT22;90;48.810;9.120;2022-09-30T00:23:31;9.70;90.20
210;DHT22;90;48.810;9.120;2022-09-30T00:25:59;9.80;90.30
210;DHT22;90;48.810;9.120;2022-09-30T00:28:29;9.80;90.40
210;DHT22;90;48.810;9.120;2022-09-30T00:30:58;9.80;90.60
210;DHT22;90;48.810;9.120;2022-09-30T00:33:26;9.80;90.30
210;DHT22;90;48.810;9.120;2022-09-30T00:35:53;9.80;90.20
210;DHT22;90;48.810;9.120;2022-09-30T00:38:21;9.70;90.30
210;DHT22;90;48.810;9.120;2022-09-30T00:40:49;9.70;90.40
210;DHT22;90;48.810;9.120;2022-09-30T00:43:19;9.70;90.40
210;DHT22;90;48.810;9.120;2022-09-30T00:45:52;9.70;90.80
210;DHT22;90;48.810;9.120;2022-09-30T00:48:24;9.70;90.80
210;DHT22;90;48.810;9.120;2022-09-30T00:50:54;9.70;90.90
210;DHT22;90;48.810;9.120;2022-09-30T00:53:25;9.70;91.10
210;DHT22;90;48.810;9.120;2022-09-30T00:55:57;9.80;91.10
210;DHT22;90;48.810;9.120;2022-09-30T00:58:29;9.80;91.00
210;DHT22;90;48.810;9.120;2022-09-30T01:00:59;9.80;91.10
210;DHT22;90;48.810;9.120;2022-09-30T01:03:29;9.80;91.10
210;DHT22;90;48.810;9.120;2022-09-30T01:05:57;9.90;91.10
210;DHT22;90;48.810;9.120;2022-09-30T01:08:25;9.80;91.00
210;DHT22;90;48.810;9.120;2022-09-30T01:10:54;9.90;91.10
210;DHT22;90;48.810;9.120;2022-09-30T01:13:23;9.90;90.90
210;DHT22;90;48.810;9.120;2022-09-30T01:16:29;9.90;90.90
210;DHT22;90;48.810;9.120;2022-09-30T01:22:15;9.90;91.30
210;DHT22;90;48.810;9.120;2022-09-30T01:25:05;9.90;91.40
210;DHT22;90;48.810;9.120;2022-09-30T01:27:46;9.90;91.40
210;DHT22;90;48.810;9.120;2022-09-30T01:30:18;9.90;91.50
210;DHT22;90;48.810;9.120;2022-09-30T01:33:10;9.90;91.80
210;DHT22;90;48.810;9.120;2022-09-30T01:38:47;10.00;91.70
210;DHT22;90;48.810;9.120;2022-09-30T01:41:23;10.00;91.70
210;DHT22;90;48.810;9.120;2022-09-30T01:43:59;10.00;91.50
210;DHT22;90;48.810;9.120;2022-09-30T01:46:31;10.00;91.60
210;DHT22;90;48.810;9.120;2022-09-30T01:49:08;10.00;91.50
210;DHT22;90;48.810;9.120;2022-09-30T01:51:40;10.10;91.50
210;DHT22;90;48.810;9.120;2022-09-30T01:54:13;10.10;91.50
210;DHT22;90;48.810;9.120;2022-09-30T01:56:46;10.10;91.50
210;DHT22;90;48.810;9.120;2022-09-30T01:59:17;10.10;91.60
210;DHT22;90;48.810;9.120;2022-09-30T02:01:50;10.10;91.50
210;DHT22;90;48.810;9.120;2022-09-30T02:04:25;10.10;91.30
210;DHT22;90;48.810;9.120;2022-09-30T02:06:59;10.00;91.20
210;DHT22;90;48.810;9.120;2022-09-30T02:09:32;10.10;91.10
210;DHT22;90;48.810;9.120;2022-09-30T02:12:04;10.00;91.10
210;DHT22;90;48.810;9.120;2022-09-30T02:14:36;10.00;91.30
210;DHT22;90;48.810;9.120;2022-09-30T02:17:11;10.00;91.30
210;DHT22;90;48.810;9.120;2022-09-30T02:20:00;10.00;91.50
210;DHT22;90;48.810;9.120;2022-09-30T02:22:30;10.00;91.50
210;DHT22;90;48.810;9.120;2022-09-30T02:25:06;10.00;91.40
210;DHT22;90;48.810;9.120;2022-09-30T02:27:39;10.00;91.90
210;DHT22;90;48.810;9.120;2022-09-30T02:30:08;10.10;91.00
210;DHT22;90;48.810;9.120;2022-09-30T02:32:39;10.00;90.90
210;DHT22;90;48.810;9.120;2022-09-30T02:35:10;10.00;91.10
210;DHT22;90;48.810;9.120;2022-09-30T02:37:42;10.00;91.20
210;DHT22;90;48.810;9.120;2022-09-30T02:40:14;10.00;91.00
210;DHT22;90;48.810;9.120;2022-09-30T02:42:44;10.00;90.70
210;DHT22;90;48.810;9.120;2022-09-30T02:45:14;10.00;90.70
210;DHT22;90;48.810;9.120;2022-09-30T02:47:55;9.90;90.70
210;DHT22;90;48.810;9.120;2022-09-30T02:50:30;9.90;90.60
210;DHT22;90;48.810;9.120;2022-09-30T02:53:10;9.80;90.70
210;DHT22;90;48.810;9.120;2022-09-30T02:55:46;9.80;90.40
210;DHT22;90;48.810;9.120;2022-09-30T02:58:16;9.70;90.40
210;DHT22;90;48.810;9.120;2022-09-30T03:00:45;9.60;90.40
210;DHT22;90;48.810;9.120;2022-09-30T03:03:16;9.60;90.60
210;DHT22;90;48.810;9.120;2022-09-30T03:05:46;9.60;90.70
210;DHT22;90;48.810;9.120;2022-09-30T03:08:14;9.50;90.80
210;DHT22;90;48.810;9.120;2022-09-30T03:10:42;9.50;90.60
210;DHT22;90;48.810;9.120;2022-09-30T03:13:24;9.40;90.60
210;DHT22;90;48.810;9.120;2022-09-30T03:16:04;9.30;91.00
210;DHT22;90;48.810;9.120;2022-09-30T03:18:56;9.30;91.10
210;DHT22;90;48.810;9.120;2022-09-30T03:21:40;9.40;91.20
210;DHT22;90;48.810;9.120;2022-09-30T03:24:35;9.40;91.40
210;DHT22;90;48.810;9.120;2022-09-30T03:27:14;9.40;91.40
210;DHT22;90;48.810;9.120;2022-09-30T03:29:50;9.40;91.40
210;DHT22;90;48.810;9.120;2022-09-30T03:32:30;9.40;91.30
210;DHT22;90;48.810;9.120;2022-09-30T03:35:05;9.40;91.20
210;DHT22;90;48.810;9.120;2022-09-30T03:37:43;9.40;91.50
210;DHT22;90;48.810;9.120;2022-09-30T03:40:16;9.40;91.50
210;DHT22;90;48.810;9.120;2022-09-30T03:42:49;9.40;91.40
210;DHT22;90;48.810;9.120;2022-09-30T03:45:24;9.40;91.60
210;DHT22;90;48.810;9.120;2022-09-30T03:47:57;9.50;91.50
210;DHT22;90;48.810;9.120;2022-09-30T03:50:27;9.40;91.40
210;DHT22;90;48.810;9.120;2022-09-30T03:52:57;9.40;91.50
210;DHT22;90;48.810;9.120;2022-09-30T03:55:24;9.50;91.40
210;DHT22;90;48.810;9.120;2022-09-30T03:57:52;9.50;91.60
210;DHT22;90;48.810;9.120;2022-09-30T04:00:19;9.50;91.50
210;DHT22;90;48.810;9.120;2022-09-30T04:02:46;9.50;91.50
210;DHT22;90;48.810;9.120;2022-09-30T04:05:13;9.40;91.70
210;DHT22;90;48.810;9.120;2022-09-30T04:07:41;9.50;91.60
210;DHT22;90;48.810;9.120;2022-09-30T04:10:10;9.50;91.70
210;DHT22;90;48.810;9.120;2022-09-30T04:12:37;9.50;91.70
210;DHT22;90;48.810;9.120;2022-09-30T04:15:05;9.50;92.00
210;DHT22;90;48.810;9.120;2022-09-30T04:17:32;9.50;92.00
210;DHT22;90;48.810;9.120;2022-09-30T04:19:59;9.60;92.10
210;DHT22;90;48.810;9.120;2022-09-30T04:22:26;9.60;92.00
210;DHT22;90;48.810;9.120;2022-09-30T04:24:53;9.60;92.00
210;DHT22;90;48.810;9.120;2022-09-30T04:27:22;9.70;91.70
210;DHT22;90;48.810;9.120;2022-09-30T04:29:49;9.70;91.50
210;DHT22;90;48.810;9.120;2022-09-30T04:32:16;9.70;91.50
210;DHT22;90;48.810;9.120;2022-09-30T04:34:43;9.70;91.30
210;DHT22;90;48.810;9.120;2022-09-30T04:37:10;9.60;91.40
210;DHT22;90;48.810;9.120;2022-09-30T04:39:38;9.60;91.20
210;DHT22;90;48.810;9.120;2022-09-30T04:42:06;9.60;91.30
210;DHT22;90;48.810;9.120;2022-09-30T04:44:34;9.60;91.40
210;DHT22;90;48.810;9.120;2022-09-30T04:47:02;9.60;91.60
210;DHT22;90;48.810;9.120;2022-09-30T04:49:29;9.50;91.40
210;DHT22;90;48.810;9.120;2022-09-30T04:51:56;9.50;91.60
210;DHT22;90;48.810;9.120;2022-09-30T04:54:23;9.50;91.80
210;DHT22;90;48.810;9.120;2022-09-30T04:56:50;9.60;91.70
210;DHT22;90;48.810;9.120;2022-09-30T04:59:17;9.60;91.40
210;DHT22;90;48.810;9.120;2022-09-30T05:01:45;9.50;91.40
210;DHT22;90;48.810;9.120;2022-09-30T05:04:12;9.50;91.40
210;DHT22;90;48.810;9.120;2022-09-30T05:06:40;9.60;91.80
210;DHT22;90;48.810;9.120;2022-09-30T05:09:07;9.60;91.80
210;DHT22;90;48.810;9.120;2022-09-30T05:11:34;9.60;91.60
210;DHT22;90;48.810;9.120;2022-09-30T05:14:06;9.60;91.40
210;DHT22;90;48.810;9.120;2022-09-30T05:16:35;9.60;91.00
210;DHT22;90;48.810;9.120;2022-09-30T05:19:04;9.60;90.70
210;DHT22;90;48.810;9.120;2022-09-30T05:21:31;9.50;90.70
210;DHT22;90;48.810;9.120;2022-09-30T05:23:58;9.40;90.90
210;DHT22;90;48.810;9.120;2022-09-30T05:26:25;9.40;91.00
210;DHT22;90;48.810;9.120;2022-09-30T05:28:52;9.40;91.20
210;DHT22;90;48.810;9.120;2022-09-30T05:31:19;9.40;91.40
210;DHT22;90;48.810;9.120;2022-09-30T05:33:47;9.40;91.10
210;DHT22;90;48.810;9.120;2022-09-30T05:36:16;9.40;91.40
210;DHT22;90;48.810;9.120;2022-09-30T05:38:45;9.50;91.10
210;DHT22;90;48.810;9.120;2022-09-30T05:41:16;9.40;90.90
210;DHT22;90;48.810;9.120;2022-09-30T05:43:44;9.40;90.20
210;DHT22;90;48.810;9.120;2022-09-30T05:46:12;9.40;90.20
210;DHT22;90;48.810;9.120;2022-09-30T05:48:39;9.30;90.30
210;DHT22;90;48.810;9.120;2022-09-30T05:51:06;9.30;90.70
210;DHT22;90;48.810;9.120;2022-09-30T05:53:36;9.30;90.90
210;DHT22;90;48.810;9.120;2022-09-30T05:56:04;9.30;90.70
210;DHT22;90;48.810;9.120;2022-09-30T05:58:31;9.40;90.30
210;DHT22;90;48.810;9.120;2022-09-30T06:01:03;9.40;90.30
210;DHT22;90;48.810;9.120;2022-09-30T06:03:31;9.40;90.40
210;DHT22;90;48.810;9.120;2022-09-30T06:05:58;9.30;90.30
210;DHT22;90;48.810;9.120;2022-09-30T06:08:28;9.40;90.30
210;DHT22;90;48.810;9.120;2022-09-30T06:10:57;9.40;90.00
210;DHT22;90;48.810;9.120;2022-09-30T06:13:24;9.40;90.00
210;DHT22;90;48.810;9.120;2022-09-30T06:15:56;9.50;89.80
210;DHT22;90;48.810;9.120;2022-09-30T06:18:24;9.50;89.90
210;DHT22;90;48.810;9.120;2022-09-30T06:20:52;9.60;91.40
210;DHT22;90;48.810;9.120;2022-09-30T06:23:19;9.60;90.80
210;DHT22;90;48.810;9.120;2022-09-30T06:25:49;9.60;90.70
210;DHT22;90;48.810;9.120;2022-09-30T06:28:17;9.70;90.40
210;DHT22;90;48.810;9.120;2022-09-30T06:30:45;9.60;90.30
210;DHT22;90;48.810;9.120;2022-09-30T06:33:12;9.70;90.70
210;DHT22;90;48.810;9.120;2022-09-30T06:35:40;9.70;90.70
210;DHT22;90;48.810;9.120;2022-09-30T06:38:07;9.80;90.90
210;DHT22;90;48.810;9.120;2022-09-30T06:40:35;9.80;91.10
210;DHT22;90;48.810;9.120;2022-09-30T06:43:03;9.90;90.90
210;DHT22;90;48.810;9.120;2022-09-30T06:45:31;9.90;91.10
210;DHT22;90;48.810;9.120;2022-09-30T06:48:01;10.10;91.40
210;DHT22;90;48.810;9.120;2022-09-30T06:50:29;10.10;91.60
210;DHT22;90;48.810;9.120;2022-09-30T06:52:56;10.20;91.60
210;DHT22;90;48.810;9.120;2022-09-30T06:55:24;10.20;91.60
210;DHT22;90;48.810;9.120;2022-09-30T06:57:55;10.30;91.50
210;DHT22;90;48.810;9.120;2022-09-30T07:00:23;10.40;91.40
210;DHT22;90;48.810;9.120;2022-09-30T07:02:54;10.40;91.50
210;DHT22;90;48.810;9.120;2022-09-30T07:05:22;10.50;91.60
210;DHT22;90;48.810;9.120;2022-09-30T07:07:53;10.50;91.70
210;DHT22;90;48.810;9.120;2022-09-30T07:10:20;10.60;91.50
210;DHT22;90;48.810;9.120;2022-09-30T07:12:51;10.60;91.50
210;DHT22;90;48.810;9.120;2022-09-30T07:15:19;10.60;91.60
210;DHT22;90;48.810;9.120;2022-09-30T07:17:50;10.70;91.60
210;DHT22;90;48.810;9.120;2022-09-30T07:20:19;10.70;91.90
210;DHT22;90;48.810;9.120;2022-09-30T07:22:46;10.70;91.90
210;DHT22;90;48.810;9.120;2022-09-30T07:25:13;10.70;92.10
210;DHT22;90;48.810;9.120;2022-09-30T07:27:42;10.70;92.40
210;DHT22;90;48.810;9.120;2022-09-30T07:30:10;10.70;92.20
210;DHT22;90;48.810;9.120;2022-09-30T07:32:37;10.70;92.10
210;DHT22;90;48.810;9.120;2022-09-30T07:35:04;10.70;92.30
210;DHT22;90;48.810;9.120;2022-09-30T07:37:33;10.90;92.60
210;DHT22;90;48.810;9.120;2022-09-30T07:40:04;10.90;91.90
210;DHT22;90;48.810;9.120;2022-09-30T07:42:32;10.90;91.90
210;DHT22;90;48.810;9.120;2022-09-30T07:44:59;10.90;91.80
210;DHT22;90;48.810;9.120;2022-09-30T07:47:26;10.90;92.40
210;DHT22;90;48.810;9.120;2022-09-30T07:49:53;11.00;91.90
210;DHT22;90;48.810;9.120;2022-09-30T07:52:20;10.90;91.70
210;DHT22;90;48.810;9.120;2022-09-30T07:54:49;10.80;92.10
210;DHT22;90;48.810;9.120;2022-09-30T07:57:16;10.80;92.30
210;DHT22;90;48.810;9.120;2022-09-30T07:59:43;10.90;91.70
210;DHT22;90;48.810;9.120;2022-09-30T08:02:13;10.80;91.80
210;DHT22;90;48.810;9.120;2022-09-30T08:04:41;10.90;91.80
210;DHT22;90;48.810;9.120;2022-09-30T08:07:08;10.90;91.80
210;DHT22;90;48.810;9.120;2022-09-30T08:09:35;10.90;91.60
210;DHT22;90;48.810;9.120;2022-09-30T08:12:04;11.00;91.20
210;DHT22;90;48.810;9.120;2022-09-30T08:14:31;11.00;91.60
210;DHT22;90;48.810;9.120;2022-09-30T08:16:58;11.10;91.70
210;DHT22;90;48.810;9.120;2022-09-30T08:19:26;11.10;91.50
210;DHT22;90;48.810;9.120;2022-09-30T08:21:54;11.10;91.50
210;DHT22;90;48.810;9.120;2022-09-30T08:24:22;11.20;91.40
210;DHT22;90;48.810;9.120;2022-09-30T08:26:49;11.20;91.20
210;DHT22;90;48.810;9.120;2022-09-30T08:29:18;11.30;90.70
210;DHT22;90;48.810;9.120;2022-09-30T08:31:45;11.30;90.40
210;DHT22;90;48.810;9.120;2022-09-30T08:34:12;11.40;90.20
210;DHT22;90;48.810;9.120;2022-09-30T08:36:39;11.50;90.40
210;DHT22;90;48.810;9.120;2022-09-30T08:39:06;11.60;90.10
210;DHT22;90;48.810;9.120;2022-09-30T08:41:48;11.60;89.60
210;DHT22;90;48.810;9.120;2022-09-30T08:44:34;11.70;89.30
210;DHT22;90;48.810;9.120;2022-09-30T08:47:07;11.80;88.90
210;DHT22;90;48.810;9.120;2022-09-30T08:49:47;11.90;88.60
210;DHT22;90;48.810;9.120;2022-09-30T08:52:19;12.00;88.50
210;DHT22;90;48.810;9.120;2022-09-30T08:54:51;12.20;87.90
210;DHT22;90;48.810;9.120;2022-09-30T08:57:19;12.20;86.80
210;DHT22;90;48.810;9.120;2022-09-30T08:59:51;12.10;87.40
210;DHT22;90;48.810;9.120;2022-09-30T09:02:21;12.10;87.10
210;DHT22;90;48.810;9.120;2022-09-30T09:04:55;12.20;86.50
210;DHT22;90;48.810;9.120;2022-09-30T09:07:36;12.40;85.60
210;DHT22;90;48.810;9.120;2022-09-30T09:10:19;12.40;85.10
210;DHT22;90;48.810;9.120;2022-09-30T09:12:55;12.50;84.00
210;DHT22;90;48.810;9.120;2022-09-30T09:15:32;12.50;83.90
210;DHT22;90;48.810;9.120;2022-09-30T09:18:35;12.60;83.70
210;DHT22;90;48.810;9.120;2022-09-30T09:21:17;12.80;82.70
210;DHT22;90;48.810;9.120;2022-09-30T09:23:46;12.80;82.70
210;DHT22;90;48.810;9.120;2022-09-30T09:26:15;12.70;83.10
210;DHT22;90;48.810;9.120;2022-09-30T09:28:50;12.70;83.10
210;DHT22;90;48.810;9.120;2022-09-30T09:31:27;12.70;81.70
210;DHT22;90;48.810;9.120;2022-09-30T09:33:58;12.60;81.10
210;DHT22;90;48.810;9.120;2022-09-30T09:36:38;12.70;81.20
210;DHT22;90;48.810;9.120;2022-09-30T09:42:27;12.90;79.20
210;DHT22;90;48.810;9.120;2022-09-30T09:45:01;13.10;78.10
210;DHT22;90;48.810;9.120;2022-09-30T09:47:30;13.20;78.40
210;DHT22;90;48.810;9.120;2022-09-30T09:49:59;13.30;77.80
210;DHT22;90;48.810;9.120;2022-09-30T09:52:39;13.30;77.80
210;DHT22;90;48.810;9.120;2022-09-30T09:55:08;13.30;78.40
210;DHT22;90;48.810;9.120;2022-09-30T09:57:37;13.40;77.60
210;DHT22;90;48.810;9.120;2022-09-30T10:00:09;13.50;77.10
210;DHT22;90;48.810;9.120;2022-09-30T10:03:04;13.50;77.20
210;DHT22;90;48.810;9.120;2022-09-30T10:05:35;13.90;81.80
210;DHT22;90;48.810;9.120;2022-09-30T10:08:13;14.10;76.70
210;DHT22;90;48.810;9.120;2022-09-30T10:10:46;14.00;75.80
210;DHT22;90;48.810;9.120;2022-09-30T10:13:40;13.90;76.10
210;DHT22;90;48.810;9.120;2022-09-30T10:16:27;14.00;75.90
210;DHT22;90;48.810;9.120;2022-09-30T10:18:58;14.10;73.90
210;DHT22;90;48.810;9.120;2022-09-30T10:21:26;14.20;69.10
210;DHT22;90;48.810;9.120;2022-09-30T10:23:54;14.00;69.10
210;DHT22;90;48.810;9.120;2022-09-30T10:26:23;13.90;70.60
210;DHT22;90;48.810;9.120;2022-09-30T10:28:55;14.00;69.60
210;DHT22;90;48.810;9.120;2022-09-30T10:31:24;14.00;69.00
210;DHT22;90;48.810;9.120;2022-09-30T10:33:58;14.00;70.20
210;DHT22;90;48.810;9.120;2022-09-30T10:36:35;14.10;70.20
210;DHT22;90;48.810;9.120;2022-09-30T10:39:05;14.20;70.60
210;DHT22;90;48.810;9.120;2022-09-30T10:41:34;14.30;71.70
210;DHT22;90;48.810;9.120;2022-09-30T10:44:04;14.70;76.50
210;DHT22;90;48.810;9.120;2022-09-30T10:46:35;14.90;69.70
210;DHT22;90;48.810;9.120;2022-09-30T10:49:25;14.90;69.00
210;DHT22;90;48.810;9.120;2022-09-30T10:52:12;15.10;69.20
210;DHT22;90;48.810;9.120;2022-09-30T10:54:56;15.10;68.80
210;DHT22;90;48.810;9.120;2022-09-30T10:57:25;15.00;67.80
210;DHT22;90;48.810;9.120;2022-09-30T10:59:57;14.90;67.90
210;DHT22;90;48.810;9.120;2022-09-30T11:02:30;15.00;67.60
210;DHT22;90;48.810;9.120;2022-09-30T11:05:12;14.90;68.40
210;DHT22;90;48.810;9.120;2022-09-30T11:07:46;14.90;66.90
210;DHT22;90;48.810;9.120;2022-09-30T11:10:37;15.00;67.60
210;DHT22;90;48.810;9.120;2022-09-30T11:13:12;15.10;65.20
210;DHT22;90;48.810;9.120;2022-09-30T11:15:46;15.10;66.80
210;DHT22;90;48.810;9.120;2022-09-30T11:18:20;15.20;65.60
210;DHT22;90;48.810;9.120;2022-09-30T11:20:52;15.40;66.70
210;DHT22;90;48.810;9.120;2022-09-30T11:23:25;15.30;64.80
210;DHT22;90;48.810;9.120;2022-09-30T11:25:58;15.40;65.60
210;DHT22;90;48.810;9.120;2022-09-30T11:28:39;15.40;65.90
210;DHT22;90;48.810;9.120;2022-09-30T11:31:18;15.50;65.10
210;DHT22;90;48.810;9.120;2022-09-30T11:34:06;15.50;64.70
210;DHT22;90;48.810;9.120;2022-09-30T11:36:46;15.50;64.90
210;DHT22;90;48.810;9.120;2022-09-30T11:39:42;15.50;63.60
210;DHT22;90;48.810;9.120;2022-09-30T11:42:19;15.50;64.50
210;DHT22;90;48.810;9.120;2022-09-30T11:44:55;15.50;64.20
210;DHT22;90;48.810;9.120;2022-09-30T11:47:36;15.60;63.40
210;DHT22;90;48.810;9.120;2022-09-30T11:50:36;15.60;65.00
210;DHT22;90;48.810;9.120;2022-09-30T11:53:18;15.70;64.10
210;DHT22;90;48.810;9.120;2022-09-30T11:56:02;15.80;65.50
210;DHT22;90;48.810;9.120;2022-09-30T11:58:36;15.70;63.60
210;DHT22;90;48.810;9.120;2022-09-30T12:01:13;15.90;62.50
210;DHT22;90;48.810;9.120;2022-09-30T12:03:45;16.00;63.10
210;DHT22;90;48.810;9.120;2022-09-30T12:06:20;16.10;62.10
210;DHT22;90;48.810;9.120;2022-09-30T12:08:54;16.30;61.30
210;DHT22;90;48.810;9.120;2022-09-30T12:11:35;16.30;61.70
210;DHT22;90;48.810;9.120;2022-09-30T12:14:09;16.30;63.60
210;DHT22;90;48.810;9.120;2022-09-30T12:16:38;16.50;61.00
210;DHT22;90;48.810;9.120;2022-09-30T12:19:14;16.50;60.30
210;DHT22;90;48.810;9.120;2022-09-30T12:21:46;16.60;59.90
210;DHT22;90;48.810;9.120;2022-09-30T12:24:20;16.60;59.40
210;DHT22;90;48.810;9.120;2022-09-30T12:26:50;16.50;59.50
210;DHT22;90;48.810;9.120;2022-09-30T12:29:20;16.60;60.60
210;DHT22;90;48.810;9.120;2022-09-30T12:32:20;16.80;60.30
210;DHT22;90;48.810;9.120;2022-09-30T12:35:07;17.00;57.90
210;DHT22;90;48.810;9.120;2022-09-30T12:37:52;16.80;57.60
210;DHT22;90;48.810;9.120;2022-09-30T12:40:39;16.70;58.20
210;DHT22;90;48.810;9.120;2022-09-30T12:43:27;16.30;60.30
210;DHT22;90;48.810;9.120;2022-09-30T12:48:46;15.90;61.20
210;DHT22;90;48.810;9.120;2022-09-30T12:51:25;15.70;61.00
210;DHT22;90;48.810;9.120;2022-09-30T12:53:58;15.60;61.80
210;DHT22;90;48.810;9.120;2022-09-30T12:56:31;15.40;60.80
210;DHT22;90;48.810;9.120;2022-09-30T12:59:02;15.30;60.50
210;DHT22;90;48.810;9.120;2022-09-30T13:01:30;15.30;61.30
210;DHT22;90;48.810;9.120;2022-09-30T13:04:28;15.30;61.50
210;DHT22;90;48.810;9.120;2022-09-30T13:07:16;15.30;61.50
210;DHT22;90;48.810;9.120;2022-09-30T13:10:26;15.30;60.40
210;DHT22;90;48.810;9.120;2022-09-30T13:13:26;15.40;60.50
210;DHT22;90;48.810;9.120;2022-09-30T13:15:56;15.40;62.10
210;DHT22;90;48.810;9.120;2022-09-30T13:18:59;15.40;62.00
210;DHT22;90;48.810;9.120;2022-09-30T13:21:26;15.40;60.80
210;DHT22;90;48.810;9.120;2022-09-30T13:23:54;15.40;60.90
210;DHT22;90;48.810;9.120;2022-09-30T13:26:40;15.40;62.60
210;DHT22;90;48.810;9.120;2022-09-30T13:29:46;15.40;63.30
210;DHT22;90;48.810;9.120;2022-09-30T13:32:30;15.40;61.40
210;DHT22;90;48.810;9.120;2022-09-30T13:34:57;15.50;62.20
210;DHT22;90;48.810;9.120;2022-09-30T13:37:36;15.40;62.40
210;DHT22;90;48.810;9.120;2022-09-30T13:40:17;15.40;61.20
210;DHT22;90;48.810;9.120;2022-09-30T13:42:53;15.30;60.10
210;DHT22;90;48.810;9.120;2022-09-30T13:45:29;15.30;61.00
210;DHT22;90;48.810;9.120;2022-09-30T13:48:06;15.20;60.80
210;DHT22;90;48.810;9.120;2022-09-30T13:50:41;15.20;60.20
210;DHT22;90;48.810;9.120;2022-09-30T13:53:19;15.20;60.50
210;DHT22;90;48.810;9.120;2022-09-30T13:55:49;15.10;60.00
210;DHT22;90;48.810;9.120;2022-09-30T13:58:41;15.10;60.70
210;DHT22;90;48.810;9.120;2022-09-30T14:01:21;15.10;62.10
210;DHT22;90;48.810;9.120;2022-09-30T14:04:12;15.10;61.40
210;DHT22;90;48.810;9.120;2022-09-30T14:06:53;15.20;61.10
210;DHT22;90;48.810;9.120;2022-09-30T14:09:40;15.20;61.40
210;DHT22;90;48.810;9.120;2022-09-30T14:12:30;15.10;62.10
210;DHT22;90;48.810;9.120;2022-09-30T14:15:37;15.20;61.90
210;DHT22;90;48.810;9.120;2022-09-30T14:21:17;15.10;61.70
210;DHT22;90;48.810;9.120;2022-09-30T14:23:55;15.10;62.80
210;DHT22;90;48.810;9.120;2022-09-30T14:29:26;15.10;62.10
210;DHT22;90;48.810;9.120;2022-09-30T14:31:56;15.10;61.70
210;DHT22;90;48.810;9.120;2022-09-30T14:34:26;15.10;61.80
210;DHT22;90;48.810;9.120;2022-09-30T14:36:54;15.10;62.30
210;DHT22;90;48.810;9.120;2022-09-30T14:39:23;15.10;62.50
210;DHT22;90;48.810;9.120;2022-09-30T14:41:54;15.10;63.00
210;DHT22;90;48.810;9.120;2022-09-30T14:44:23;15.10;62.60
210;DHT22;90;48.810;9.120;2022-09-30T14:46:52;15.10;62.90
210;DHT22;90;48.810;9.120;2022-09-30T14:49:28;15.10;62.70
210;DHT22;90;48.810;9.120;2022-09-30T14:51:59;15.10;63.10
210;DHT22;90;48.810;9.120;2022-09-30T14:54:29;15.20;62.40
210;DHT22;90;48.810;9.120;2022-09-30T14:56:57;15.30;62.40
210;DHT22;90;48.810;9.120;2022-09-30T14:59:29;15.40;62.40
210;DHT22;90;48.810;9.120;2022-09-30T15:01:58;15.40;62.10
210;DHT22;90;48.810;9.120;2022-09-30T15:04:34;15.50;61.90
210;DHT22;90;48.810;9.120;2022-09-30T15:07:09;15.50;61.10
210;DHT22;90;48.810;9.120;2022-09-30T15:09:40;15.50;61.30
210;DHT22;90;48.810;9.120;2022-09-30T15:12:12;15.40;61.30
210;DHT22;90;48.810;9.120;2022-09-30T15:14:46;15.40;61.20
210;DHT22;90;48.810;9.120;2022-09-30T15:17:17;15.30;61.80
210;DHT22;90;48.810;9.120;2022-09-30T15:19:46;15.30;62.70
210;DHT22;90;48.810;9.120;2022-09-30T15:22:15;15.60;63.60
210;DHT22;90;48.810;9.120;2022-09-30T15:24:43;16.00;63.80
210;DHT22;90;48.810;9.120;2022-09-30T15:27:15;16.40;60.50
210;DHT22;90;48.810;9.120;2022-09-30T15:33:14;16.80;58.30
210;DHT22;90;48.810;9.120;2022-09-30T15:35:44;16.90;58.40
210;DHT22;90;48.810;9.120;2022-09-30T15:38:17;17.00;57.10
210;DHT22;90;48.810;9.120;2022-09-30T15:40:52;17.20;57.80
210;DHT22;90;48.810;9.120;2022-09-30T15:43:33;17.40;57.20
210;DHT22;90;48.810;9.120;2022-09-30T15:46:28;17.40;57.20
210;DHT22;90;48.810;9.120;2022-09-30T15:49:00;17.60;57.10
210;DHT22;90;48.810;9.120;2022-09-30T15:51:34;17.60;56.00
210;DHT22;90;48.810;9.120;2022-09-30T15:54:27;17.50;55.70
210;DHT22;90;48.810;9.120;2022-09-30T15:56:57;17.20;57.00
210;DHT22;90;48.810;9.120;2022-09-30T15:59:58;17.10;57.50
210;DHT22;90;48.810;9.120;2022-09-30T16:02:28;16.90;58.30
210;DHT22;90;48.810;9.120;2022-09-30T16:04:57;16.60;58.30
210;DHT22;90;48.810;9.120;2022-09-30T16:07:29;16.30;59.00
210;DHT22;90;48.810;9.120;2022-09-30T16:09:57;16.20;60.00
210;DHT22;90;48.810;9.120;2022-09-30T16:12:28;15.90;60.70
210;DHT22;90;48.810;9.120;2022-09-30T16:14:58;15.80;60.60
210;DHT22;90;48.810;9.120;2022-09-30T16:17:28;15.70;60.80
210;DHT22;90;48.810;9.120;2022-09-30T16:19:56;15.60;61.00
210;DHT22;90;48.810;9.120;2022-09-30T16:22:50;15.50;61.20
210;DHT22;90;48.810;9.120;2022-09-30T16:25:20;15.30;62.20
210;DHT22;90;48.810;9.120;2022-09-30T16:27:48;15.20;62.60
210;DHT22;90;48.810;9.120;2022-09-30T16:30:19;15.10;63.10
210;DHT22;90;48.810;9.120;2022-09-30T16:32:49;15.10;63.90
210;DHT22;90;48.810;9.120;2022-09-30T16:35:19;15.00;65.30
210;DHT22;90;48.810;9.120;2022-09-30T16:37:47;14.90;67.10
210;DHT22;90;48.810;9.120;2022-09-30T16:40:19;14.90;69.00
210;DHT22;90;48.810;9.120;2022-09-30T16:42:48;14.70;71.80
210;DHT22;90;48.810;9.120;2022-09-30T16:45:15;14.60;74.70
210;DHT22;90;48.810;9.120;2022-09-30T16:47:43;14.40;75.50
210;DHT22;90;48.810;9.120;2022-09-30T16:50:29;14.30;77.20
210;DHT22;90;48.810;9.120;2022-09-30T16:52:58;14.20;77.30
210;DHT22;90;48.810;9.120;2022-09-30T16:55:28;14.00;77.50
210;DHT22;90;48.810;9.120;2022-09-30T16:57:56;14.00;77.80
210;DHT22;90;48.810;9.120;2022-09-30T17:00:24;13.90;77.80
210;DHT22;90;48.810;9.120;2022-09-30T17:02:52;13.80;78.30
210;DHT22;90;48.810;9.120;2022-09-30T17:05:21;13.70;78.40
210;DHT22;90;48.810;9.120;2022-09-30T17:07:51;13.60;78.30
210;DHT22;90;48.810;9.120;2022-09-30T17:10:22;13.50;78.50
210;DHT22;90;48.810;9.120;2022-09-30T17:12:51;13.40;78.90
210;DHT22;90;48.810;9.120;2022-09-30T17:15:18;13.30;79.20
210;DHT22;90;48.810;9.120;2022-09-30T17:17:46;13.30;78.70
210;DHT22;90;48.810;9.120;2022-09-30T17:20:13;13.20;78.30
210;DHT22;90;48.810;9.120;2022-09-30T17:22:40;13.20;78.20
210;DHT22;90;48.810;9.120;2022-09-30T17:25:08;13.10;78.50
210;DHT22;90;48.810;9.120;2022-09-30T17:27:37;12.90;78.80
210;DHT22;90;48.810;9.120;2022-09-30T17:30:07;12.90;79.20
210;DHT22;90;48.810;9.120;2022-09-30T17:32:34;12.80;79.70
210;DHT22;90;48.810;9.120;2022-09-30T17:35:02;12.80;79.90
210;DHT22;90;48.810;9.120;2022-09-30T17:37:32;12.60;80.30
210;DHT22;90;48.810;9.120;2022-09-30T17:40:01;12.60;80.30
210;DHT22;90;48.810;9.120;2022-09-30T17:42:57;12.50;80.20
210;DHT22;90;48.810;9.120;2022-09-30T17:45:37;12.40;80.60
210;DHT22;90;48.810;9.120;2022-09-30T17:48:05;12.40;80.40
210;DHT22;90;48.810;9.120;2022-09-30T17:50:38;12.40;80.30
210;DHT22;90;48.810;9.120;2022-09-30T17:53:09;12.20;81.00
210;DHT22;90;48.810;9.120;2022-09-30T17:55:44;12.10;81.40
210;DHT22;90;48.810;9.120;2022-09-30T17:58:20;12.00;82.00